sensor_id;sensor_type;location;lat;lon;timestamp;pressure;altitude;pressure_sealevel;temperature;humidity
54936;BME280;40838;50.676;7.838;2023-02-10T00:00:33;100124.34;;;-3.08;94.06
54936;BME280;40838;50.676;7.838;2023-02-10T00:03:02;100131.63;;;-2.56;92.25
54936;BME280;40838;50.676;7.838;2023-02-10T00:05:28;100126.84;;;-2.61;91.68
54936;BME280;40838;50.676;7.838;2023-02-10T00:07:55;100131.53;;;-2.46;92.44
54936;BME280;40838;50.676;7.838;2023-02-10T00:10:22;100129.63;;;-3.17;95.59
54936;BME280;40838;50.676;7.838;2023-02-10T00:12:49;100140.50;;;-3.79;98.66
54936;BME280;40838;50.676;7.838;2023-02-10T00:15:16;100143.50;;;-3.74;98.95
54936;BME280;40838;50.676;7.838;2023-02-10T00:17:43;100143.19;;;-3.14;95.74
54936;BME280;40838;50.676;7.838;2023-02-10T00:20:11;100140.34;;;-2.65;94.12
54936;BME280;40838;50.676;7.838;2023-02-10T00:22:38;100144.66;;;-3.01;94.77
54936;BME280;40838;50.676;7.838;2023-02-10T00:25:06;100144.63;;;-3.86;98.94
54936;BME280;40838;50.676;7.838;2023-02-10T00:27:33;100146.81;;;-3.91;99.29
54936;BME280;40838;50.676;7.838;2023-02-10T00:30:00;100146.69;;;-2.95;95.53
54936;BME280;40838;50.676;7.838;2023-02-10T00:32:27;100151.50;;;-2.73;93.61
54936;BME280;40838;50.676;7.838;2023-02-10T00:34:54;100147.75;;;-2.88;94.55
54936;BME280;40838;50.676;7.838;2023-02-10T00:37:22;100150.34;;;-2.61;93.25
54936;BME280;40838;50.676;7.838;2023-02-10T00:39:51;100153.50;;;-2.39;91.83
54936;BME280;40838;50.676;7.838;2023-02-10T00:42:18;100153.94;;;-2.26;91.74
54936;BME280;40838;50.676;7.838;2023-02-10T00:44:45;100157.47;;;-2.80;93.17
54936;BME280;40838;50.676;7.838;2023-02-10T00:47:12;100158.19;;;-2.25;91.64
54936;BME280;40838;50.676;7.838;2023-02-10T00:49:39;100158.78;;;-2.49;92.68
54936;BME280;40838;50.676;7.838;2023-02-10T00:52:06;100171.50;;;-3.19;96.79
54936;BME280;40838;50.676;7.838;2023-02-10T00:54:34;100172.16;;;-2.62;95.14
54936;BME280;40838;50.676;7.838;2023-02-10T00:57:01;100166.34;;;-2.28;92.89
54936;BME280;40838;50.676;7.838;2023-02-10T00:59:28;100171.25;;;-2.70;95.43
54936;BME280;40838;50.676;7.838;2023-02-10T01:01:54;100174.56;;;-3.43;97.87
54936;BME280;40838;50.676;7.838;2023-02-10T01:04:22;100176.75;;;-3.38;100.00
54936;BME280;40838;50.676;7.838;2023-02-10T01:06:48;100174.78;;;-3.27;98.94
54936;BME280;40838;50.676;7.838;2023-02-10T01:09:15;100181.75;;;-2.80;96.68
54936;BME280;40838;50.676;7.838;2023-02-10T01:11:44;100181.22;;;-2.56;96.54
54936;BME280;40838;50.676;7.838;2023-02-10T01:14:11;100180.66;;;-3.15;100.00
54936;BME280;40838;50.676;7.838;2023-02-10T01:16:39;100180.88;;;-2.98;100.00
54936;BME280;40838;50.676;7.838;2023-02-10T01:19:08;100179.44;;;-2.83;99.95
54936;BME280;40838;50.676;7.838;2023-02-10T01:21:35;100173.88;;;-2.70;98.94
54936;BME280;40838;50.676;7.838;2023-02-10T01:24:04;100176.63;;;-2.72;100.00
54936;BME280;40838;50.676;7.838;2023-02-10T01:26:31;100176.31;;;-2.41;98.63
54936;BME280;40838;50.676;7.838;2023-02-10T01:28:59;100172.41;;;-2.55;100.00
54936;BME280;40838;50.676;7.838;2023-02-10T01:31:26;100170.25;;;-2.60;100.00
54936;BME280;40838;50.676;7.838;2023-02-10T01:33:54;100167.72;;;-2.51;100.00
54936;BME280;40838;50.676;7.838;2023-02-10T01:36:23;100176.69;;;-2.18;100.00
54936;BME280;40838;50.676;7.838;2023-02-10T01:38:51;100182.69;;;-2.08;100.00
54936;BME280;40838;50.676;7.838;2023-02-10T01:41:19;100191.63;;;-2.10;100.00
54936;BME280;40838;50.676;7.838;2023-02-10T01:43:55;100187.75;;;-2.06;100.00
54936;BME280;40838;50.676;7.838;2023-02-10T01:46:24;100196.75;;;-2.64;100.00
54936;BME280;40838;50.676;7.838;2023-02-10T01:48:51;100200.91;;;-2.44;100.00
54936;BME280;40838;50.676;7.838;2023-02-10T01:51:19;100192.53;;;-2.20;100.00
54936;BME280;40838;50.676;7.838;2023-02-10T01:53:48;100195.16;;;-2.20;100.00
54936;BME280;40838;50.676;7.838;2023-02-10T01:56:15;100197.69;;;-2.10;99.70
54936;BME280;40838;50.676;7.838;2023-02-10T01:58:45;100202.69;;;-2.44;100.00
54936;BME280;40838;50.676;7.838;2023-02-10T02:01:12;100198.56;;;-3.02;100.00
54936;BME280;40838;50.676;7.838;2023-02-10T02:03:40;100195.66;;;-2.34;100.00
54936;BME280;40838;50.676;7.838;2023-02-10T02:06:09;100195.06;;;-2.55;100.00
54936;BME280;40838;50.676;7.838;2023-02-10T02:08:37;100194.22;;;-1.75;99.48
54936;BME280;40838;50.676;7.838;2023-02-10T02:11:15;100195.50;;;-1.97;100.00
54936;BME280;40838;50.676;7.838;2023-02-10T02:16:52;100194.41;;;-2.57;100.00
54936;BME280;40838;50.676;7.838;2023-02-10T02:26:11;100193.34;;;-2.37;100.00
54936;BME280;40838;50.676;7.838;2023-02-10T02:28:55;100196.91;;;-2.20;100.00
54936;BME280;40838;50.676;7.838;2023-02-10T02:31:51;100202.69;;;-2.17;100.00
54936;BME280;40838;50.676;7.838;2023-02-10T02:34:25;100191.81;;;-1.68;100.00
54936;BME280;40838;50.676;7.838;2023-02-10T02:36:58;100198.13;;;-1.53;99.90
54936;BME280;40838;50.676;7.838;2023-02-10T02:39:27;100190.81;;;-1.49;99.33
54936;BME280;40838;50.676;7.838;2023-02-10T02:42:16;100199.00;;;-1.70;100.00
54936;BME280;40838;50.676;7.838;2023-02-10T02:44:45;100193.63;;;-1.86;100.00
54936;BME280;40838;50.676;7.838;2023-02-10T02:47:19;100197.28;;;-1.35;100.00
54936;BME280;40838;50.676;7.838;2023-02-10T02:49:57;100202.59;;;-1.45;100.00
54936;BME280;40838;50.676;7.838;2023-02-10T02:52:38;100207.91;;;-1.37;100.00
54936;BME280;40838;50.676;7.838;2023-02-10T02:55:13;100209.28;;;-2.68;100.00
54936;BME280;40838;50.676;7.838;2023-02-10T02:57:45;100207.72;;;-1.79;100.00
54936;BME280;40838;50.676;7.838;2023-02-10T03:00:16;100201.34;;;-1.59;100.00
54936;BME280;40838;50.676;7.838;2023-02-10T03:02:48;100192.91;;;-1.27;100.00
54936;BME280;40838;50.676;7.838;2023-02-10T03:05:19;100199.94;;;-1.27;100.00
54936;BME280;40838;50.676;7.838;2023-02-10T03:07:46;100198.41;;;-1.64;100.00
54936;BME280;40838;50.676;7.838;2023-02-10T03:10:14;100204.97;;;-1.78;100.00
54936;BME280;40838;50.676;7.838;2023-02-10T03:12:41;100201.91;;;-1.55;100.00
54936;BME280;40838;50.676;7.838;2023-02-10T03:15:08;100203.84;;;-1.57;100.00
54936;BME280;40838;50.676;7.838;2023-02-10T03:17:36;100213.22;;;-1.47;100.00
54936;BME280;40838;50.676;7.838;2023-02-10T03:20:05;100214.38;;;-1.41;100.00
54936;BME280;40838;50.676;7.838;2023-02-10T03:22:32;100209.66;;;-1.63;100.00
54936;BME280;40838;50.676;7.838;2023-02-10T03:24:59;100212.94;;;-1.43;100.00
54936;BME280;40838;50.676;7.838;2023-02-10T03:27:26;100222.09;;;-1.13;99.77
54936;BME280;40838;50.676;7.838;2023-02-10T03:29:53;100223.97;;;-1.24;99.56
54936;BME280;40838;50.676;7.838;2023-02-10T03:32:20;100224.22;;;-1.17;99.36
54936;BME280;40838;50.676;7.838;2023-02-10T03:34:47;100225.41;;;-1.29;99.87
54936;BME280;40838;50.676;7.838;2023-02-10T03:37:15;100227.69;;;-1.78;100.00
54936;BME280;40838;50.676;7.838;2023-02-10T03:39:42;100222.34;;;-1.51;100.00
54936;BME280;40838;50.676;7.838;2023-02-10T03:42:09;100227.66;;;-1.16;98.79
54936;BME280;40838;50.676;7.838;2023-02-10T03:44:37;100226.53;;;-1.14;99.22
54936;BME280;40838;50.676;7.838;2023-02-10T03:47:04;100225.72;;;-1.06;98.56
54936;BME280;40838;50.676;7.838;2023-02-10T03:49:31;100226.72;;;-1.33;100.00
54936;BME280;40838;50.676;7.838;2023-02-10T03:51:58;100232.59;;;-1.75;100.00
54936;BME280;40838;50.676;7.838;2023-02-10T03:54:26;100235.81;;;-1.19;100.00
54936;BME280;40838;50.676;7.838;2023-02-10T03:56:53;100233.25;;;-1.91;100.00
54936;BME280;40838;50.676;7.838;2023-02-10T03:59:20;100238.13;;;-2.42;100.00
54936;BME280;40838;50.676;7.838;2023-02-10T04:01:46;100241.09;;;-2.54;100.00
54936;BME280;40838;50.676;7.838;2023-02-10T04:04:13;100244.59;;;-1.64;100.00
54936;BME280;40838;50.676;7.838;2023-02-10T04:06:40;100241.16;;;-1.47;100.00
54936;BME280;40838;50.676;7.838;2023-02-10T04:09:07;100240.25;;;-1.56;100.00
54936;BME280;40838;50.676;7.838;2023-02-10T04:11:35;100238.91;;;-1.42;100.00
54936;BME280;40838;50.676;7.838;2023-02-10T04:14:02;100240.53;;;-1.67;100.00
54936;BME280;40838;50.676;7.838;2023-02-10T04:16:28;100237.84;;;-1.31;100.00
54936;BME280;40838;50.676;7.838;2023-02-10T04:18:57;100232.53;;;-2.01;100.00
54936;BME280;40838;50.676;7.838;2023-02-10T04:21:24;100233.84;;;-2.15;100.00
54936;BME280;40838;50.676;7.838;2023-02-10T04:23:51;100227.31;;;-1.39;100.00
54936;BME280;40838;50.676;7.838;2023-02-10T04:26:19;100225.66;;;-1.23;100.00
54936;BME280;40838;50.676;7.838;2023-02-10T04:28:47;100226.53;;;-1.94;100.00
54936;BME280;40838;50.676;7.838;2023-02-10T04:31:14;100231.31;;;-2.25;100.00
54936;BME280;40838;50.676;7.838;2023-02-10T04:33:40;100237.16;;;-2.13;100.00
54936;BME280;40838;50.676;7.838;2023-02-10T04:36:07;100233.84;;;-2.15;100.00
54936;BME280;40838;50.676;7.838;2023-02-10T04:38:35;100238.59;;;-1.39;100.00
54936;BME280;40838;50.676;7.838;2023-02-10T04:41:01;100242.06;;;-1.74;100.00
54936;BME280;40838;50.676;7.838;2023-02-10T04:43:30;100238.59;;;-1.13;100.00
54936;BME280;40838;50.676;7.838;2023-02-10T04:45:58;100247.44;;;-1.40;100.00
54936;BME280;40838;50.676;7.838;2023-02-10T04:48:27;100256.03;;;-2.19;100.00
54936;BME280;40838;50.676;7.838;2023-02-10T04:50:54;100255.44;;;-1.77;100.00
54936;BME280;40838;50.676;7.838;2023-02-10T04:53:21;100250.81;;;-1.83;100.00
54936;BME280;40838;50.676;7.838;2023-02-10T04:55:48;100246.63;;;-1.94;100.00
54936;BME280;40838;50.676;7.838;2023-02-10T04:58:15;100236.88;;;-2.38;100.00
54936;BME280;40838;50.676;7.838;2023-02-10T05:00:42;100231.41;;;-2.17;100.00
54936;BME280;40838;50.676;7.838;2023-02-10T05:03:10;100232.09;;;-1.79;100.00
54936;BME280;40838;50.676;7.838;2023-02-10T05:05:37;100231.72;;;-1.84;100.00
54936;BME280;40838;50.676;7.838;2023-02-10T05:08:04;100228.81;;;-1.37;100.00
54936;BME280;40838;50.676;7.838;2023-02-10T05:10:31;100226.91;;;-1.01;100.00
54936;BME280;40838;50.676;7.838;2023-02-10T05:12:58;100232.06;;;-1.17;100.00
54936;BME280;40838;50.676;7.838;2023-02-10T05:15:24;100227.47;;;-1.41;100.00
54936;BME280;40838;50.676;7.838;2023-02-10T05:17:51;100226.00;;;-1.17;100.00
54936;BME280;40838;50.676;7.838;2023-02-10T05:20:19;100216.97;;;-1.49;100.00
54936;BME280;40838;50.676;7.838;2023-02-10T05:22:46;100221.06;;;-1.20;100.00
54936;BME280;40838;50.676;7.838;2023-02-10T05:25:13;100221.38;;;-1.24;100.00
54936;BME280;40838;50.676;7.838;2023-02-10T05:27:40;100229.63;;;-1.10;100.00
54936;BME280;40838;50.676;7.838;2023-02-10T05:30:08;100222.59;;;-1.10;100.00
54936;BME280;40838;50.676;7.838;2023-02-10T05:32:35;100221.25;;;-1.66;100.00
54936;BME280;40838;50.676;7.838;2023-02-10T05:35:02;100220.44;;;-1.66;100.00
54936;BME280;40838;50.676;7.838;2023-02-10T05:37:30;100219.91;;;-1.88;100.00
54936;BME280;40838;50.676;7.838;2023-02-10T05:39:57;100220.09;;;-1.19;100.00
54936;BME280;40838;50.676;7.838;2023-02-10T05:42:24;100225.13;;;-1.26;100.00
54936;BME280;40838;50.676;7.838;2023-02-10T05:44:51;100230.69;;;-1.47;100.00
54936;BME280;40838;50.676;7.838;2023-02-10T05:47:18;100233.63;;;-0.98;100.00
54936;BME280;40838;50.676;7.838;2023-02-10T05:49:44;100236.22;;;-0.72;100.00
54936;BME280;40838;50.676;7.838;2023-02-10T05:52:12;100236.63;;;-0.50;100.00
54936;BME280;40838;50.676;7.838;2023-02-10T05:54:40;100246.88;;;-0.23;100.00
54936;BME280;40838;50.676;7.838;2023-02-10T05:57:07;100248.56;;;-0.48;100.00
54936;BME280;40838;50.676;7.838;2023-02-10T05:59:34;100252.31;;;-1.19;100.00
54936;BME280;40838;50.676;7.838;2023-02-10T06:02:01;100250.75;;;-1.04;100.00
54936;BME280;40838;50.676;7.838;2023-02-10T06:04:27;100253.16;;;-0.84;100.00
54936;BME280;40838;50.676;7.838;2023-02-10T06:06:54;100254.09;;;-0.59;100.00
54936;BME280;40838;50.676;7.838;2023-02-10T06:09:21;100249.88;;;-0.52;100.00
54936;BME280;40838;50.676;7.838;2023-02-10T06:11:50;100252.94;;;-0.65;100.00
54936;BME280;40838;50.676;7.838;2023-02-10T06:14:17;100258.41;;;-1.10;100.00
54936;BME280;40838;50.676;7.838;2023-02-10T06:16:44;100263.75;;;-1.20;100.00
54936;BME280;40838;50.676;7.838;2023-02-10T06:19:11;100263.41;;;-0.99;100.00
54936;BME280;40838;50.676;7.838;2023-02-10T06:21:38;100258.41;;;-0.84;100.00
54936;BME280;40838;50.676;7.838;2023-02-10T06:24:05;100254.09;;;-0.59;100.00
54936;BME280;40838;50.676;7.838;2023-02-10T06:26:32;100255.41;;;-0.63;100.00
54936;BME280;40838;50.676;7.838;2023-02-10T06:29:00;100261.66;;;-0.48;100.00
54936;BME280;40838;50.676;7.838;2023-02-10T06:31:27;100270.78;;;-0.60;100.00
54936;BME280;40838;50.676;7.838;2023-02-10T06:33:53;100268.66;;;-0.65;100.00
54936;BME280;40838;50.676;7.838;2023-02-10T06:36:20;100278.78;;;-0.96;100.00
54936;BME280;40838;50.676;7.838;2023-02-10T06:38:47;100272.53;;;-0.69;100.00
54936;BME280;40838;50.676;7.838;2023-02-10T06:41:14;100275.03;;;-0.67;100.00
54936;BME280;40838;50.676;7.838;2023-02-10T06:43:41;100278.97;;;-0.63;100.00
54936;BME280;40838;50.676;7.838;2023-02-10T06:46:10;100277.88;;;-1.31;100.00
54936;BME280;40838;50.676;7.838;2023-02-10T06:48:38;100284.84;;;-1.39;100.00
54936;BME280;40838;50.676;7.838;2023-02-10T06:51:05;100290.38;;;-1.96;100.00
54936;BME280;40838;50.676;7.838;2023-02-10T06:53:32;100292.97;;;-1.25;100.00
54936;BME280;40838;50.676;7.838;2023-02-10T06:55:59;100291.56;;;-0.93;100.00
54936;BME280;40838;50.676;7.838;2023-02-10T06:58:26;100298.53;;;-0.75;100.00
54936;BME280;40838;50.676;7.838;2023-02-10T07:00:53;100305.41;;;-0.74;100.00
54936;BME280;40838;50.676;7.838;2023-02-10T07:03:21;100304.28;;;-0.72;100.00
54936;BME280;40838;50.676;7.838;2023-02-10T07:05:47;100316.50;;;-1.25;100.00
54936;BME280;40838;50.676;7.838;2023-02-10T07:08:14;100313.75;;;-1.59;100.00
54936;BME280;40838;50.676;7.838;2023-02-10T07:10:41;100316.44;;;-1.86;100.00
54936;BME280;40838;50.676;7.838;2023-02-10T07:13:08;100302.41;;;-1.68;100.00
54936;BME280;40838;50.676;7.838;2023-02-10T07:15:35;100305.00;;;-0.88;100.00
54936;BME280;40838;50.676;7.838;2023-02-10T07:18:01;100305.56;;;-1.02;100.00
54936;BME280;40838;50.676;7.838;2023-02-10T07:20:30;100312.38;;;-1.09;100.00
54936;BME280;40838;50.676;7.838;2023-02-10T07:22:57;100318.09;;;-1.50;100.00
54936;BME280;40838;50.676;7.838;2023-02-10T07:25:23;100311.72;;;-1.65;100.00
54936;BME280;40838;50.676;7.838;2023-02-10T07:27:50;100309.94;;;-1.64;100.00
54936;BME280;40838;50.676;7.838;2023-02-10T07:30:17;100323.19;;;-2.39;100.00
54936;BME280;40838;50.676;7.838;2023-02-10T07:32:44;100319.06;;;-1.69;100.00
54936;BME280;40838;50.676;7.838;2023-02-10T07:35:11;100323.47;;;-1.33;100.00
54936;BME280;40838;50.676;7.838;2023-02-10T07:37:40;100323.13;;;-1.12;100.00
54936;BME280;40838;50.676;7.838;2023-02-10T07:40:07;100324.16;;;-1.67;100.00
54936;BME280;40838;50.676;7.838;2023-02-10T07:42:34;100323.09;;;-1.74;100.00
54936;BME280;40838;50.676;7.838;2023-02-10T07:45:24;100332.06;;;-1.59;100.00
54936;BME280;40838;50.676;7.838;2023-02-10T07:47:51;100326.31;;;-1.01;100.00
54936;BME280;40838;50.676;7.838;2023-02-10T07:50:19;100331.56;;;-0.74;100.00
54936;BME280;40838;50.676;7.838;2023-02-10T07:52:47;100329.69;;;-0.90;100.00
54936;BME280;40838;50.676;7.838;2023-02-10T07:55:14;100336.34;;;-1.85;100.00
54936;BME280;40838;50.676;7.838;2023-02-10T07:57:41;100339.56;;;-1.92;100.00
54936;BME280;40838;50.676;7.838;2023-02-10T08:00:09;100341.88;;;-0.99;100.00
54936;BME280;40838;50.676;7.838;2023-02-10T08:02:41;100337.13;;;-0.78;100.00
54936;BME280;40838;50.676;7.838;2023-02-10T08:05:08;100348.19;;;-1.63;100.00
54936;BME280;40838;50.676;7.838;2023-02-10T08:07:35;100347.75;;;-1.23;100.00
54936;BME280;40838;50.676;7.838;2023-02-10T08:10:05;100345.84;;;-1.13;100.00
54936;BME280;40838;50.676;7.838;2023-02-10T08:12:32;100338.00;;;-0.69;100.00
54936;BME280;40838;50.676;7.838;2023-02-10T08:14:59;100344.91;;;-1.30;100.00
54936;BME280;40838;50.676;7.838;2023-02-10T08:17:27;100346.31;;;-1.17;100.00
54936;BME280;40838;50.676;7.838;2023-02-10T08:19:54;100352.66;;;-1.02;100.00
54936;BME280;40838;50.676;7.838;2023-02-10T08:22:21;100349.44;;;-0.96;100.00
54936;BME280;40838;50.676;7.838;2023-02-10T08:24:48;100352.44;;;-1.27;100.00
54936;BME280;40838;50.676;7.838;2023-02-10T08:27:16;100343.09;;;-0.67;100.00
54936;BME280;40838;50.676;7.838;2023-02-10T08:29:43;100350.47;;;-0.28;100.00
54936;BME280;40838;50.676;7.838;2023-02-10T08:32:10;100348.41;;;-1.39;100.00
54936;BME280;40838;50.676;7.838;2023-02-10T08:34:38;100353.81;;;-0.79;100.00
54936;BME280;40838;50.676;7.838;2023-02-10T08:37:05;100346.31;;;-0.73;100.00
54936;BME280;40838;50.676;7.838;2023-02-10T08:39:32;100349.69;;;-1.43;100.00
54936;BME280;40838;50.676;7.838;2023-02-10T08:41:59;100334.13;;;-0.57;100.00
54936;BME280;40838;50.676;7.838;2023-02-10T08:44:27;100338.59;;;-1.01;100.00
54936;BME280;40838;50.676;7.838;2023-02-10T08:46:54;100334.41;;;-1.12;100.00
54936;BME280;40838;50.676;7.838;2023-02-10T08:49:20;100326.75;;;-1.31;100.00
54936;BME280;40838;50.676;7.838;2023-02-10T08:51:50;100328.84;;;-1.17;100.00
54936;BME280;40838;50.676;7.838;2023-02-10T08:54:17;100328.63;;;-0.97;100.00
54936;BME280;40838;50.676;7.838;2023-02-10T08:56:44;100322.91;;;-0.75;100.00
54936;BME280;40838;50.676;7.838;2023-02-10T08:59:11;100329.28;;;-0.09;100.00
54936;BME280;40838;50.676;7.838;2023-02-10T09:01:39;100321.03;;;0.12;100.00
54936;BME280;40838;50.676;7.838;2023-02-10T09:04:06;100323.16;;;0.08;100.00
54936;BME280;40838;50.676;7.838;2023-02-10T09:06:35;100320.75;;;-0.11;100.00
54936;BME280;40838;50.676;7.838;2023-02-10T09:09:05;100331.06;;;-0.78;100.00
54936;BME280;40838;50.676;7.838;2023-02-10T09:11:32;100322.94;;;-0.93;100.00
54936;BME280;40838;50.676;7.838;2023-02-10T09:13:59;100327.31;;;-0.49;100.00
54936;BME280;40838;50.676;7.838;2023-02-10T09:16:25;100334.47;;;0.25;100.00
54936;BME280;40838;50.676;7.838;2023-02-10T09:18:54;100345.22;;;-0.63;100.00
54936;BME280;40838;50.676;7.838;2023-02-10T09:21:21;100351.47;;;-1.08;100.00
54936;BME280;40838;50.676;7.838;2023-02-10T09:23:47;100348.41;;;-0.17;100.00
54936;BME280;40838;50.676;7.838;2023-02-10T09:26:14;100353.16;;;-0.20;100.00
54936;BME280;40838;50.676;7.838;2023-02-10T09:28:41;100354.81;;;0.23;100.00
54936;BME280;40838;50.676;7.838;2023-02-10T09:31:09;100359.88;;;0.25;100.00
54936;BME280;40838;50.676;7.838;2023-02-10T09:33:36;100361.25;;;0.78;99.61
54936;BME280;40838;50.676;7.838;2023-02-10T09:36:06;100364.44;;;0.15;100.00
54936;BME280;40838;50.676;7.838;2023-02-10T09:38:33;100371.78;;;-0.23;100.00
54936;BME280;40838;50.676;7.838;2023-02-10T09:41:09;100368.84;;;0.14;100.00
54936;BME280;40838;50.676;7.838;2023-02-10T09:43:54;100363.81;;;0.37;100.00
54936;BME280;40838;50.676;7.838;2023-02-10T09:46:31;100359.56;;;0.36;100.00
54936;BME280;40838;50.676;7.838;2023-02-10T09:49:11;100366.63;;;0.52;100.00
54936;BME280;40838;50.676;7.838;2023-02-10T09:51:47;100362.72;;;0.56;100.00
54936;BME280;40838;50.676;7.838;2023-02-10T09:54:19;100369.47;;;0.99;99.01
54936;BME280;40838;50.676;7.838;2023-02-10T09:56:46;100372.91;;;0.92;97.60
54936;BME280;40838;50.676;7.838;2023-02-10T09:59:16;100378.19;;;0.08;100.00
54936;BME280;40838;50.676;7.838;2023-02-10T10:01:49;100375.00;;;0.64;100.00
54936;BME280;40838;50.676;7.838;2023-02-10T10:04:20;100372.56;;;0.78;100.00
54936;BME280;40838;50.676;7.838;2023-02-10T10:06:51;100367.53;;;2.13;90.97
54936;BME280;40838;50.676;7.838;2023-02-10T10:09:27;100363.03;;;3.96;82.08
54936;BME280;40838;50.676;7.838;2023-02-10T10:11:58;100358.16;;;4.94;75.44
54936;BME280;40838;50.676;7.838;2023-02-10T10:14:26;100364.88;;;3.81;80.87
54936;BME280;40838;50.676;7.838;2023-02-10T10:17:19;100365.25;;;3.10;84.58
54936;BME280;40838;50.676;7.838;2023-02-10T10:20:06;100371.69;;;5.62;74.53
54936;BME280;40838;50.676;7.838;2023-02-10T10:22:50;100368.59;;;5.58;71.88
54936;BME280;40838;50.676;7.838;2023-02-10T10:25:43;100374.41;;;6.16;68.31
54936;BME280;40838;50.676;7.838;2023-02-10T10:28:22;100381.91;;;6.13;64.65
54936;BME280;40838;50.676;7.838;2023-02-10T10:30:55;100382.25;;;5.33;73.82
54936;BME280;40838;50.676;7.838;2023-02-10T10:33:28;100385.28;;;4.81;77.60
54936;BME280;40838;50.676;7.838;2023-02-10T10:35:57;100385.69;;;2.62;88.04
54936;BME280;40838;50.676;7.838;2023-02-10T10:38:38;100392.47;;;2.79;87.78
54936;BME280;40838;50.676;7.838;2023-02-10T10:41:10;100377.56;;;4.07;83.75
54936;BME280;40838;50.676;7.838;2023-02-10T10:43:42;100378.75;;;3.89;85.71
54936;BME280;40838;50.676;7.838;2023-02-10T10:46:14;100381.00;;;4.07;80.97
54936;BME280;40838;50.676;7.838;2023-02-10T10:48:42;100371.91;;;4.10;81.39
54936;BME280;40838;50.676;7.838;2023-02-10T10:51:11;100379.31;;;3.55;84.79
54936;BME280;40838;50.676;7.838;2023-02-10T10:53:43;100375.44;;;4.68;76.89
54936;BME280;40838;50.676;7.838;2023-02-10T10:56:19;100373.81;;;5.17;74.55
54936;BME280;40838;50.676;7.838;2023-02-10T10:58:49;100360.97;;;6.18;69.64
54936;BME280;40838;50.676;7.838;2023-02-10T11:01:17;100353.97;;;7.18;64.41
54936;BME280;40838;50.676;7.838;2023-02-10T11:03:44;100362.00;;;6.17;67.73
54936;BME280;40838;50.676;7.838;2023-02-10T11:06:13;100353.50;;;6.41;66.48
54936;BME280;40838;50.676;7.838;2023-02-10T11:08:51;100356.78;;;6.50;68.25
54936;BME280;40838;50.676;7.838;2023-02-10T11:11:31;100360.31;;;6.02;68.29
54936;BME280;40838;50.676;7.838;2023-02-10T11:13:58;100351.13;;;7.00;63.71
54936;BME280;40838;50.676;7.838;2023-02-10T11:16:25;100351.91;;;5.57;71.06
54936;BME280;40838;50.676;7.838;2023-02-10T11:18:53;100349.44;;;4.29;79.35
54936;BME280;40838;50.676;7.838;2023-02-10T11:21:20;100350.81;;;3.21;85.36
54936;BME280;40838;50.676;7.838;2023-02-10T11:23:50;100358.41;;;2.63;90.71
54936;BME280;40838;50.676;7.838;2023-02-10T11:26:20;100357.28;;;2.57;91.92
54936;BME280;40838;50.676;7.838;2023-02-10T11:28:48;100366.94;;;1.94;94.19
54936;BME280;40838;50.676;7.838;2023-02-10T11:31:28;100359.06;;;1.94;93.87
54936;BME280;40838;50.676;7.838;2023-02-10T11:34:00;100354.91;;;2.08;94.42
54936;BME280;40838;50.676;7.838;2023-02-10T11:36:30;100347.97;;;1.84;94.14
54936;BME280;40838;50.676;7.838;2023-02-10T11:39:03;100344.97;;;2.18;94.61
54936;BME280;40838;50.676;7.838;2023-02-10T11:41:31;100338.97;;;2.33;92.90
54936;BME280;40838;50.676;7.838;2023-02-10T11:44:00;100333.59;;;2.26;93.43
54936;BME280;40838;50.676;7.838;2023-02-10T11:46:29;100340.59;;;2.11;93.08
54936;BME280;40838;50.676;7.838;2023-02-10T11:48:58;100331.38;;;2.69;91.39
54936;BME280;40838;50.676;7.838;2023-02-10T11:51:25;100326.47;;;2.43;91.06
54936;BME280;40838;50.676;7.838;2023-02-10T11:53:53;100331.91;;;1.63;95.65
54936;BME280;40838;50.676;7.838;2023-02-10T11:56:24;100322.94;;;2.51;92.30
54936;BME280;40838;50.676;7.838;2023-02-10T11:59:17;100314.38;;;2.26;92.48
54936;BME280;40838;50.676;7.838;2023-02-10T12:01:51;100317.31;;;3.15;88.75
54936;BME280;40838;50.676;7.838;2023-02-10T12:07:17;100316.56;;;3.06;88.50
54936;BME280;40838;50.676;7.838;2023-02-10T12:09:52;100308.50;;;2.15;92.18
54936;BME280;40838;50.676;7.838;2023-02-10T12:12:24;100313.13;;;3.05;90.00
54936;BME280;40838;50.676;7.838;2023-02-10T12:15:04;100303.78;;;3.62;87.05
54936;BME280;40838;50.676;7.838;2023-02-10T12:17:38;100310.47;;;3.05;89.39
54936;BME280;40838;50.676;7.838;2023-02-10T12:20:26;100314.28;;;2.65;91.27
54936;BME280;40838;50.676;7.838;2023-02-10T12:23:22;100308.53;;;2.84;90.57
54936;BME280;40838;50.676;7.838;2023-02-10T12:26:02;100309.25;;;2.78;91.82
54936;BME280;40838;50.676;7.838;2023-02-10T12:28:41;100310.53;;;2.59;92.15
54936;BME280;40838;50.676;7.838;2023-02-10T12:31:17;100299.06;;;3.13;89.38
54936;BME280;40838;50.676;7.838;2023-02-10T12:34:01;100307.84;;;2.68;91.43
54936;BME280;40838;50.676;7.838;2023-02-10T12:36:37;100303.69;;;3.11;88.80
54936;BME280;40838;50.676;7.838;2023-02-10T12:39:13;100298.25;;;3.13;89.34
54936;BME280;40838;50.676;7.838;2023-02-10T12:41:48;100300.16;;;3.19;88.90
54936;BME280;40838;50.676;7.838;2023-02-10T12:44:34;100302.50;;;2.99;90.28
54936;BME280;40838;50.676;7.838;2023-02-10T12:47:13;100299.44;;;2.72;90.54
54936;BME280;40838;50.676;7.838;2023-02-10T12:49:51;100300.66;;;2.84;90.00
54936;BME280;40838;50.676;7.838;2023-02-10T12:52:25;100295.34;;;3.07;90.02
54936;BME280;40838;50.676;7.838;2023-02-10T12:54:57;100295.66;;;3.79;86.57
54936;BME280;40838;50.676;7.838;2023-02-10T12:57:28;100296.13;;;3.82;87.38
54936;BME280;40838;50.676;7.838;2023-02-10T13:00:01;100294.53;;;3.51;87.71
54936;BME280;40838;50.676;7.838;2023-02-10T13:02:37;100295.72;;;2.44;91.27
54936;BME280;40838;50.676;7.838;2023-02-10T13:05:09;100293.44;;;3.46;87.35
54936;BME280;40838;50.676;7.838;2023-02-10T13:07:42;100276.97;;;2.99;88.67
54936;BME280;40838;50.676;7.838;2023-02-10T13:10:26;100280.34;;;3.52;87.53
54936;BME280;40838;50.676;7.838;2023-02-10T13:12:56;100280.88;;;3.03;89.24